createdAt,value
2022-10-07T00:00:00.366Z,99.90
2022-10-07T00:02:50.123Z,99.90
2022-10-07T00:05:38.530Z,99.90
2022-10-07T00:08:26.958Z,99.90
2022-10-07T00:11:17.064Z,99.90
2022-10-07T00:14:07.868Z,99.90
2022-10-07T00:16:56.328Z,99.90
2022-10-07T00:19:46.077Z,99.90
2022-10-07T00:22:34.475Z,99.90
2022-10-07T00:25:22.947Z,99.90
2022-10-07T00:28:11.423Z,99.90
2022-10-07T00:31:00.668Z,99.90
2022-10-07T00:33:49.955Z,99.90
2022-10-07T00:36:40.008Z,99.90
2022-10-07T00:39:28.641Z,99.90
2022-10-07T00:42:18.009Z,99.90
2022-10-07T00:45:07.109Z,99.90
2022-10-07T00:47:55.415Z,99.90
2022-10-07T00:50:44.057Z,99.90
2022-10-07T00:53:37.307Z,99.90
2022-10-07T00:56:27.847Z,99.90
2022-10-07T00:59:17.717Z,99.90
2022-10-07T01:02:06.018Z,99.90
2022-10-07T01:04:55.559Z,99.90
2022-10-07T01:07:45.127Z,99.90
2022-10-07T01:10:46.178Z,99.90
2022-10-07T01:13:40.085Z,99.90
2022-10-07T01:16:35.860Z,99.90
2022-10-07T01:19:43.985Z,99.90
2022-10-07T01:22:41.766Z,99.90
2022-10-07T01:25:44.823Z,99.90
2022-10-07T01:28:38.900Z,99.90
2022-10-07T01:31:34.273Z,99.90
2022-10-07T01:34:24.591Z,99.90
2022-10-07T01:37:16.515Z,99.90
2022-10-07T01:40:11.331Z,99.90
2022-10-07T01:43:00.307Z,99.90
2022-10-07T01:45:52.511Z,99.90
2022-10-07T01:48:40.934Z,99.90
2022-10-07T01:51:34.483Z,99.90
2022-10-07T01:54:36.009Z,99.90
2022-10-07T01:57:37.893Z,99.90
2022-10-07T02:00:26.546Z,99.90
2022-10-07T02:03:38.269Z,99.90
2022-10-07T02:06:36.891Z,99.90
2022-10-07T02:09:31.791Z,99.90
2022-10-07T02:12:31.404Z,99.90
2022-10-07T02:15:24.709Z,99.90
2022-10-07T02:18:16.235Z,99.90
2022-10-07T02:21:09.423Z,99.90
2022-10-07T02:23:59.068Z,99.90
2022-10-07T02:26:48.337Z,99.90
2022-10-07T02:29:39.453Z,99.90
2022-10-07T02:32:28.451Z,99.90
2022-10-07T02:35:24.300Z,99.90
2022-10-07T02:38:16.824Z,99.90
2022-10-07T02:41:10.452Z,99.90
2022-10-07T02:44:05.103Z,99.90
2022-10-07T02:46:56.829Z,99.90
2022-10-07T02:49:49.459Z,99.90
2022-10-07T02:52:39.528Z,99.90
2022-10-07T02:55:31.767Z,99.90
2022-10-07T02:58:22.260Z,99.90
2022-10-07T03:01:11.867Z,99.90
2022-10-07T03:04:00.519Z,99.90
2022-10-07T03:06:49.682Z,99.90
2022-10-07T03:09:38.103Z,99.90
2022-10-07T03:12:28.968Z,99.90
2022-10-07T03:15:17.392Z,99.90
2022-10-07T03:18:05.967Z,99.90
2022-10-07T03:20:55.455Z,99.90
2022-10-07T03:23:43.768Z,99.90
2022-10-07T03:26:33.301Z,99.90
2022-10-07T03:29:22.938Z,99.90
2022-10-07T03:32:11.539Z,99.90
2022-10-07T03:34:59.936Z,99.90
2022-10-07T03:37:48.244Z,99.90
2022-10-07T03:40:36.615Z,99.90
2022-10-07T03:43:26.355Z,99.90
2022-10-07T03:46:16.729Z,99.90
2022-10-07T03:49:05.171Z,99.90
2022-10-07T03:51:53.630Z,99.90
2022-10-07T03:54:41.927Z,99.90
2022-10-07T03:57:47.811Z,99.90
2022-10-07T04:00:36.178Z,99.90
2022-10-07T04:03:25.864Z,99.90
2022-10-07T04:06:14.742Z,99.90
2022-10-07T04:09:03.437Z,99.90
2022-10-07T04:11:51.728Z,99.90
2022-10-07T04:14:40.149Z,99.90
2022-10-07T04:17:28.496Z,99.90
2022-10-07T04:20:18.508Z,99.90
2022-10-07T04:23:06.800Z,99.90
2022-10-07T04:25:55.126Z,99.90
2022-10-07T04:28:43.994Z,99.90
2022-10-07T04:31:32.580Z,99.90
2022-10-07T04:34:20.935Z,99.90
2022-10-07T04:37:11.450Z,99.90
2022-10-07T04:40:01.174Z,99.90
2022-10-07T04:43:08.413Z,99.90
2022-10-07T04:46:02.707Z,99.90
2022-10-07T04:48:50.986Z,99.90
2022-10-07T04:51:39.255Z,99.90
2022-10-07T04:54:28.866Z,99.90
2022-10-07T04:57:17.179Z,99.90
2022-10-07T05:00:07.667Z,99.90
2022-10-07T05:02:55.958Z,99.90
2022-10-07T05:05:45.530Z,99.90
2022-10-07T05:08:33.905Z,99.90
2022-10-07T05:11:23.513Z,99.90
2022-10-07T05:14:11.848Z,99.90
2022-10-07T05:17:00.107Z,99.90
2022-10-07T05:19:48.595Z,99.90
2022-10-07T05:22:36.953Z,99.90
2022-10-07T05:25:25.277Z,99.90
2022-10-07T05:28:16.669Z,99.90
2022-10-07T05:31:07.485Z,99.90
2022-10-07T05:33:56.463Z,99.90
2022-10-07T05:36:45.074Z,99.90
2022-10-07T05:39:33.384Z,99.90
2022-10-07T05:42:21.727Z,99.90
2022-10-07T05:45:12.298Z,99.90
2022-10-07T05:48:00.638Z,99.90
2022-10-07T05:50:48.971Z,99.90
2022-10-07T05:53:41.161Z,99.90
2022-10-07T05:56:29.592Z,99.90
2022-10-07T05:59:17.958Z,99.90
2022-10-07T06:02:07.674Z,99.90
2022-10-07T06:04:56.042Z,99.90
2022-10-07T06:07:44.585Z,99.90
2022-10-07T06:10:51.968Z,99.90
2022-10-07T06:13:40.266Z,99.90
2022-10-07T06:16:29.420Z,99.90
2022-10-07T06:19:22.832Z,99.90
2022-10-07T06:22:11.453Z,99.90
2022-10-07T06:25:02.368Z,99.90
2022-10-07T06:27:54.186Z,99.90
2022-10-07T06:30:43.048Z,99.90
2022-10-07T06:33:31.433Z,99.90
2022-10-07T06:36:21.467Z,99.90
2022-10-07T06:39:09.959Z,99.90
2022-10-07T06:41:58.214Z,99.90
2022-10-07T06:44:46.650Z,99.90
2022-10-07T06:47:34.925Z,99.90
2022-10-07T06:50:23.201Z,99.90
2022-10-07T06:53:12.825Z,99.90
2022-10-07T06:56:03.293Z,99.90
2022-10-07T06:58:51.704Z,99.90
2022-10-07T07:01:40.022Z,99.90
2022-10-07T07:04:28.342Z,99.90
2022-10-07T07:07:16.624Z,99.90
2022-10-07T07:10:07.511Z,99.90
2022-10-07T07:12:56.201Z,99.90
2022-10-07T07:15:44.472Z,99.90
2022-10-07T07:18:32.779Z,99.90
2022-10-07T07:21:21.573Z,99.90
2022-10-07T07:24:10.003Z,99.90
2022-10-07T07:26:59.671Z,99.90
2022-10-07T07:29:47.992Z,99.90
2022-10-07T07:32:36.219Z,99.90
2022-10-07T07:35:25.025Z,99.90
2022-10-07T07:38:13.311Z,99.90
2022-10-07T07:41:05.950Z,99.90
2022-10-07T07:43:57.396Z,99.90
2022-10-07T07:46:48.351Z,99.90
2022-10-07T07:49:37.093Z,99.90
2022-10-07T07:52:25.735Z,99.90
2022-10-07T07:55:14.045Z,99.90
2022-10-07T07:58:02.359Z,99.90
2022-10-07T08:01:01.141Z,99.90
2022-10-07T08:03:50.842Z,99.90
2022-10-07T08:06:40.426Z,99.90
2022-10-07T08:09:28.639Z,99.90
2022-10-07T08:12:16.901Z,99.90
2022-10-07T08:15:05.642Z,99.90
2022-10-07T08:17:55.286Z,99.90
2022-10-07T08:20:43.567Z,99.90
2022-10-07T08:23:32.286Z,99.90
2022-10-07T08:26:20.803Z,99.90
2022-10-07T08:29:09.058Z,99.90
2022-10-07T08:31:57.329Z,99.90
2022-10-07T08:34:47.055Z,99.90
2022-10-07T08:37:35.316Z,99.90
2022-10-07T08:40:23.584Z,99.90
2022-10-07T08:43:12.932Z,99.90
2022-10-07T08:46:02.339Z,99.90
2022-10-07T08:48:55.770Z,99.90
2022-10-07T08:51:48.925Z,99.90
2022-10-07T08:54:38.366Z,99.90
2022-10-07T08:57:38.622Z,99.90
2022-10-07T09:00:27.110Z,99.90
2022-10-07T09:03:28.246Z,99.90
2022-10-07T09:06:20.171Z,99.90
2022-10-07T09:09:15.003Z,99.90
2022-10-07T09:12:06.247Z,99.90
2022-10-07T09:14:57.312Z,99.90
2022-10-07T09:17:51.694Z,99.90
2022-10-07T09:20:46.194Z,99.90
2022-10-07T09:23:36.065Z,99.90
2022-10-07T09:26:27.455Z,99.90
2022-10-07T09:29:17.367Z,99.90
2022-10-07T09:32:05.841Z,99.90
2022-10-07T09:34:54.125Z,99.90
2022-10-07T09:37:58.255Z,99.90
2022-10-07T09:41:03.019Z,99.90
2022-10-07T09:44:03.139Z,99.90
2022-10-07T09:46:53.680Z,99.90
2022-10-07T09:49:45.104Z,99.90
2022-10-07T09:52:33.864Z,99.90
2022-10-07T09:55:37.637Z,99.90
2022-10-07T09:58:27.596Z,99.90
2022-10-07T10:01:17.788Z,99.90
2022-10-07T10:04:06.183Z,99.90
2022-10-07T10:06:56.584Z,99.90
2022-10-07T10:09:50.635Z,99.90
2022-10-07T10:12:47.505Z,99.90
2022-10-07T10:15:42.603Z,99.90
2022-10-07T10:18:38.043Z,99.90
2022-10-07T10:21:30.625Z,99.90
2022-10-07T10:24:39.031Z,99.90
2022-10-07T10:27:30.656Z,99.90
2022-10-07T10:30:22.464Z,99.90
2022-10-07T10:33:25.065Z,99.90
2022-10-07T10:36:20.131Z,99.90
2022-10-07T10:39:25.404Z,99.90
2022-10-07T10:42:16.294Z,99.90
2022-10-07T10:45:11.612Z,99.90
2022-10-07T10:48:13.083Z,99.90
2022-10-07T10:51:13.398Z,99.90
2022-10-07T10:54:17.938Z,99.90
2022-10-07T10:57:17.047Z,99.90
2022-10-07T11:00:11.254Z,99.90
2022-10-07T11:03:15.927Z,99.90
2022-10-07T11:06:08.726Z,99.90
2022-10-07T11:08:59.520Z,99.90
2022-10-07T11:11:49.463Z,99.90
2022-10-07T11:14:49.937Z,99.90
2022-10-07T11:17:39.592Z,99.90
2022-10-07T11:20:33.626Z,99.90
2022-10-07T11:23:24.678Z,99.90
2022-10-07T11:26:19.671Z,99.90
2022-10-07T11:29:19.459Z,99.90
2022-10-07T11:32:13.853Z,99.90
2022-10-07T11:35:25.623Z,99.90
2022-10-07T11:38:18.497Z,99.90
2022-10-07T11:41:12.012Z,99.90
2022-10-07T11:44:05.053Z,99.90
2022-10-07T11:46:57.256Z,99.90
2022-10-07T11:49:54.982Z,99.90
2022-10-07T11:52:46.465Z,99.90
2022-10-07T11:55:41.582Z,99.90
2022-10-07T11:58:32.989Z,99.90
2022-10-07T12:01:47.405Z,99.90
2022-10-07T12:04:40.254Z,99.90
2022-10-07T12:07:59.733Z,99.90
2022-10-07T12:10:48.059Z,99.90
2022-10-07T12:13:41.854Z,99.90
2022-10-07T12:16:55.163Z,99.90
2022-10-07T12:20:27.479Z,99.90
2022-10-07T12:24:09.758Z,98.90
2022-10-07T12:26:59.607Z,98.70
2022-10-07T12:29:58.746Z,98.50
2022-10-07T12:32:57.942Z,98.50
2022-10-07T12:35:54.372Z,98.80
2022-10-07T12:38:43.262Z,99.60
2022-10-07T12:41:43.129Z,99.20
2022-10-07T12:44:36.194Z,99.40
2022-10-07T12:47:29.660Z,99.00
2022-10-07T12:50:20.724Z,98.80
2022-10-07T12:53:12.898Z,98.60
2022-10-07T12:56:01.612Z,98.60
2022-10-07T12:59:35.100Z,98.10
2022-10-07T13:03:13.605Z,97.60
2022-10-07T13:06:33.574Z,97.90
2022-10-07T13:10:00.042Z,99.00
2022-10-07T13:12:51.828Z,98.60
2022-10-07T13:15:47.126Z,99.10
2022-10-07T13:18:41.481Z,99.50
2022-10-07T13:21:37.361Z,97.70
2022-10-07T13:24:27.261Z,98.40
2022-10-07T13:27:19.313Z,97.90
2022-10-07T13:30:10.284Z,97.20
2022-10-07T13:33:24.010Z,97.70
2022-10-07T13:36:18.955Z,96.70
2022-10-07T13:39:18.770Z,97.70
2022-10-07T13:42:16.966Z,96.90
2022-10-07T13:45:15.840Z,97.40
2022-10-07T13:48:05.771Z,97.20
2022-10-07T13:50:58.530Z,97.50
2022-10-07T13:53:53.970Z,97.60
2022-10-07T13:56:43.873Z,97.70
2022-10-07T13:59:36.626Z,97.60
2022-10-07T14:02:25.037Z,97.10
2022-10-07T14:05:22.900Z,96.90
2022-10-07T14:08:16.199Z,96.60
2022-10-07T14:11:08.917Z,96.50
2022-10-07T14:13:59.404Z,96.80
2022-10-07T14:16:51.012Z,96.70
2022-10-07T14:19:40.728Z,96.80
2022-10-07T14:22:34.381Z,97.10
2022-10-07T14:25:27.850Z,96.50
2022-10-07T14:28:20.282Z,96.70
2022-10-07T14:31:35.850Z,97.30
2022-10-07T14:34:41.667Z,96.40
2022-10-07T14:37:32.022Z,97.50
2022-10-07T14:40:23.444Z,97.00
2022-10-07T14:43:11.679Z,97.20
2022-10-07T14:46:08.917Z,96.60
2022-10-07T14:48:57.561Z,97.10
2022-10-07T14:51:46.463Z,97.00
2022-10-07T14:54:36.130Z,97.70
2022-10-07T14:57:25.218Z,97.20
2022-10-07T15:00:16.170Z,97.10
2022-10-07T15:03:04.894Z,96.90
2022-10-07T15:05:53.451Z,97.40
2022-10-07T15:08:41.740Z,96.70
2022-10-07T15:11:31.433Z,97.30
2022-10-07T15:14:19.698Z,96.40
2022-10-07T15:17:11.052Z,97.20
2022-10-07T15:19:59.342Z,97.00
2022-10-07T15:22:48.144Z,97.30
2022-10-07T15:25:42.591Z,97.50
2022-10-07T15:28:33.158Z,97.50
2022-10-07T15:31:22.010Z,97.40
2022-10-07T15:34:10.634Z,97.30
2022-10-07T15:36:59.166Z,97.60
2022-10-07T15:39:47.435Z,98.10
2022-10-07T15:42:35.779Z,98.30
2022-10-07T15:45:26.838Z,98.20
2022-10-07T15:48:15.084Z,99.20
2022-10-07T15:51:04.833Z,99.50
2022-10-07T15:53:53.475Z,98.90
2022-10-07T15:56:42.612Z,99.90
2022-10-07T15:59:30.889Z,99.70
2022-10-07T16:02:21.304Z,99.70
2022-10-07T16:05:12.498Z,99.90
2022-10-07T16:08:02.695Z,99.90
2022-10-07T16:10:50.937Z,99.90
2022-10-07T16:13:40.475Z,99.90
2022-10-07T16:16:31.334Z,99.90
2022-10-07T16:19:21.139Z,99.90
2022-10-07T16:22:09.595Z,99.90
2022-10-07T16:24:57.906Z,99.90
2022-10-07T16:28:03.708Z,99.90
2022-10-07T16:30:52.226Z,99.90
2022-10-07T16:33:41.536Z,99.90
2022-10-07T16:36:31.797Z,99.90
2022-10-07T16:39:21.887Z,99.90
2022-10-07T16:42:10.292Z,99.90
2022-10-07T16:44:58.523Z,99.90
2022-10-07T16:47:47.379Z,99.90
2022-10-07T16:50:36.020Z,99.90
2022-10-07T16:53:26.075Z,99.90
2022-10-07T16:56:14.672Z,99.90
2022-10-07T16:59:05.999Z,99.90
2022-10-07T17:01:55.900Z,99.90
2022-10-07T17:04:44.420Z,99.90
2022-10-07T17:07:32.829Z,99.90
2022-10-07T17:10:22.941Z,99.90
2022-10-07T17:13:11.750Z,99.90
2022-10-07T17:16:00.124Z,99.90
2022-10-07T17:18:48.532Z,99.90
2022-10-07T17:21:37.950Z,99.90
2022-10-07T17:24:26.472Z,99.90
2022-10-07T17:27:16.784Z,99.90
2022-10-07T17:30:06.034Z,99.90
2022-10-07T17:32:54.587Z,99.90
2022-10-07T17:35:42.870Z,99.90
2022-10-07T17:38:35.198Z,99.90
2022-10-07T17:41:25.619Z,99.90
2022-10-07T17:44:15.510Z,99.90
2022-10-07T17:47:05.231Z,99.90
2022-10-07T17:49:54.289Z,99.90
2022-10-07T17:52:43.268Z,99.90
2022-10-07T17:55:33.926Z,99.90
2022-10-07T17:58:22.172Z,99.90
2022-10-07T18:01:13.969Z,99.90
2022-10-07T18:04:04.622Z,99.90
2022-10-07T18:06:52.936Z,99.90
2022-10-07T18:09:41.208Z,99.90
2022-10-07T18:12:49.208Z,99.90
2022-10-07T18:15:37.536Z,99.90
2022-10-07T18:18:27.803Z,99.90
2022-10-07T18:21:16.144Z,99.90
2022-10-07T18:24:08.367Z,99.90
2022-10-07T18:26:58.623Z,99.90
2022-10-07T18:29:46.978Z,99.90
2022-10-07T18:32:35.295Z,99.90
2022-10-07T18:35:24.904Z,99.90
2022-10-07T18:38:13.202Z,99.90
2022-10-07T18:41:02.299Z,99.90
2022-10-07T18:43:50.605Z,99.90
2022-10-07T18:46:38.911Z,99.90
2022-10-07T18:49:27.192Z,99.90
2022-10-07T18:52:17.488Z,99.90
2022-10-07T18:55:06.470Z,99.90
2022-10-07T18:57:54.688Z,99.90
2022-10-07T19:00:43.679Z,99.90
2022-10-07T19:03:33.471Z,99.90
2022-10-07T19:06:23.791Z,99.90
2022-10-07T19:09:16.093Z,99.90
2022-10-07T19:12:05.502Z,99.90
2022-10-07T19:14:52.779Z,99.90
2022-10-07T19:17:41.058Z,99.90
2022-10-07T19:20:29.334Z,99.90
2022-10-07T19:23:17.789Z,99.90
2022-10-07T19:26:08.309Z,99.90
2022-10-07T19:28:56.907Z,99.90
2022-10-07T19:31:48.646Z,99.90
2022-10-07T19:34:37.275Z,99.90
2022-10-07T19:37:25.556Z,99.90
2022-10-07T19:40:13.814Z,99.90
2022-10-07T19:43:03.513Z,99.90
2022-10-07T19:45:52.244Z,99.90
2022-10-07T19:48:40.983Z,99.90
2022-10-07T19:51:31.238Z,99.90
2022-10-07T19:54:19.595Z,99.90
2022-10-07T19:57:07.900Z,99.90
2022-10-07T19:59:57.468Z,99.90
2022-10-07T20:02:45.826Z,99.90
2022-10-07T20:05:34.125Z,99.90
2022-10-07T20:08:22.380Z,99.90
2022-10-07T20:11:12.004Z,99.90
2022-10-07T20:14:02.996Z,99.90
2022-10-07T20:16:52.497Z,99.90
2022-10-07T20:19:40.778Z,99.90
2022-10-07T20:22:29.111Z,99.90
2022-10-07T20:25:17.500Z,99.90
2022-10-07T20:28:06.021Z,99.90
2022-10-07T20:30:55.435Z,99.90
2022-10-07T20:33:46.880Z,99.90
2022-10-07T20:36:37.988Z,99.90
2022-10-07T20:39:43.831Z,99.90
2022-10-07T20:42:33.390Z,99.90
2022-10-07T20:45:21.639Z,99.90
2022-10-07T20:48:09.887Z,99.90
2022-10-07T20:51:05.355Z,99.90
2022-10-07T20:53:53.990Z,99.90
2022-10-07T20:56:42.300Z,99.90
2022-10-07T20:59:31.925Z,99.90
2022-10-07T21:02:22.392Z,99.90
2022-10-07T21:05:11.048Z,99.90
2022-10-07T21:08:00.676Z,99.90
2022-10-07T21:10:48.916Z,99.90
2022-10-07T21:13:37.444Z,99.90
2022-10-07T21:16:27.060Z,99.90
2022-10-07T21:19:17.091Z,99.90
2022-10-07T21:22:06.269Z,99.90
2022-10-07T21:24:56.308Z,99.90
2022-10-07T21:27:44.602Z,99.90
2022-10-07T21:30:32.997Z,99.90
2022-10-07T21:33:21.362Z,99.90
2022-10-07T21:36:15.814Z,99.90
2022-10-07T21:39:05.078Z,99.90
2022-10-07T21:41:55.122Z,99.90
2022-10-07T21:44:47.042Z,99.90
2022-10-07T21:47:35.310Z,99.90
2022-10-07T21:50:23.581Z,99.90
2022-10-07T21:53:13.311Z,99.90
2022-10-07T21:56:04.671Z,99.90
2022-10-07T21:58:54.382Z,99.90
2022-10-07T22:01:43.147Z,99.90
2022-10-07T22:04:31.570Z,99.90
2022-10-07T22:07:37.129Z,99.90
2022-10-07T22:10:25.421Z,99.90
2022-10-07T22:13:14.156Z,99.90
2022-10-07T22:16:06.190Z,99.90
2022-10-07T22:18:56.118Z,99.90
2022-10-07T22:21:45.731Z,99.90
2022-10-07T22:24:34.258Z,99.90
2022-10-07T22:27:23.806Z,99.90
2022-10-07T22:30:12.963Z,99.90
2022-10-07T22:33:02.822Z,99.90
2022-10-07T22:35:51.105Z,99.90
2022-10-07T22:38:40.833Z,99.90
2022-10-07T22:41:29.399Z,99.90
2022-10-07T22:44:17.693Z,99.90
2022-10-07T22:47:06.034Z,99.90
2022-10-07T22:49:55.646Z,99.90
2022-10-07T22:52:44.179Z,99.90
2022-10-07T22:55:34.771Z,99.90
2022-10-07T22:58:22.988Z,99.90
2022-10-07T23:01:13.237Z,99.90
2022-10-07T23:04:03.305Z,99.90
2022-10-07T23:06:53.539Z,99.90
2022-10-07T23:09:41.841Z,99.90
2022-10-07T23:12:30.200Z,99.90
2022-10-07T23:15:19.662Z,99.90
2022-10-07T23:18:07.924Z,99.90
2022-10-07T23:20:59.890Z,99.90
2022-10-07T23:23:51.899Z,99.90
2022-10-07T23:26:40.132Z,99.90
2022-10-07T23:29:29.431Z,99.90
2022-10-07T23:32:19.938Z,99.90
2022-10-07T23:35:08.946Z,99.90
2022-10-07T23:37:58.535Z,99.90
2022-10-07T23:40:48.318Z,99.90
2022-10-07T23:43:36.556Z,99.90
2022-10-07T23:46:27.746Z,99.90
2022-10-07T23:49:16.645Z,99.90
2022-10-07T23:52:04.891Z,99.90
2022-10-07T23:54:53.146Z,99.90
2022-10-07T23:57:42.762Z,99.90
